Time;durP1;ratioP1;P1;durP2;ratioP2;P2;SDS_P1;SDS_P2;PMS_P1;PMS_P2;Temp;Humidity;BMP_temperature;BMP_pressure;BME280_temperature;BME280_humidity;BME280_pressure;Samples;Min_cycle;Max_cycle;Signal;HPM_P1;HPM_P2
2022/07/31 00:00:52;;;;;;;4.93;1.90;;;;;;;40.62;21.64;100256.59;4898790;29;20434;-76
2022/07/31 00:03:20;;;;;;;4.70;1.88;;;;;;;40.62;19.43;100258.47;4900079;29;20821;-75
2022/07/31 00:05:49;;;;;;;1.98;1.73;;;;;;;40.61;18.99;100254.88;4885684;29;20108;-75
2022/07/31 00:08:17;;;;;;;2.67;2.05;;;;;;;40.60;20.25;100247.78;4897545;29;20100;-76
2022/07/31 00:10:46;;;;;;;3.65;2.00;;;;;;;40.58;19.82;100255.22;4893798;29;20048;-74
2022/07/31 00:13:15;;;;;;;3.17;1.98;;;;;;;40.57;20.86;100258.94;4893419;29;20061;-74
2022/07/31 00:15:45;;;;;;;3.08;1.98;;;;;;;40.58;19.93;100260.63;4894489;29;20060;-75
2022/07/31 00:18:13;;;;;;;2.20;1.70;;;;;;;40.58;20.53;100259.78;4883065;29;20100;-75
2022/07/31 00:20:43;;;;;;;5.20;2.20;;;;;;;40.56;19.70;100251.81;4883058;29;20412;-75
2022/07/31 00:23:12;;;;;;;3.28;1.92;;;;;;;40.54;20.31;100248.41;4891467;29;20052;-75
2022/07/31 00:25:40;;;;;;;1.88;1.50;;;;;;;40.55;19.90;100238.44;4886519;29;20063;-75
2022/07/31 00:28:09;;;;;;;3.22;1.70;;;;;;;40.53;20.92;100248.59;4893354;29;20495;-76
2022/07/31 00:30:37;;;;;;;2.33;1.60;;;;;;;40.49;19.13;100245.34;4891748;29;20049;-76
2022/07/31 00:33:07;;;;;;;4.68;2.17;;;;;;;40.47;21.30;100244.66;4889275;29;20071;-76
2022/07/31 00:35:36;;;;;;;3.43;1.70;;;;;;;40.48;22.42;100243.66;4887552;29;20116;-76
2022/07/31 00:38:05;;;;;;;3.42;1.92;;;;;;;40.44;20.44;100244.13;4887259;29;20514;-76
2022/07/31 00:40:33;;;;;;;2.88;1.80;;;;;;;40.38;20.28;100246.47;4887874;29;20464;-75
2022/07/31 00:43:01;;;;;;;2.97;1.70;;;;;;;40.35;21.69;100243.25;4893147;29;20048;-76
2022/07/31 00:45:30;;;;;;;3.40;1.77;;;;;;;40.33;22.29;100245.25;4890818;29;20112;-75
2022/07/31 00:48:00;;;;;;;2.17;1.95;;;;;;;40.29;21.79;100244.72;4892992;29;20060;-75
2022/07/31 00:50:30;;;;;;;4.30;1.73;;;;;;;40.27;20.64;100248.59;4889368;29;20068;-76
2022/07/31 00:52:59;;;;;;;3.23;1.83;;;;;;;40.23;21.99;100248.06;4891561;29;20060;-75
2022/07/31 00:55:27;;;;;;;2.85;1.80;;;;;;;40.19;20.91;100255.63;4894124;29;20349;-76
2022/07/31 00:57:56;;;;;;;2.47;2.05;;;;;;;40.16;20.48;100257.84;4900809;29;20044;-75
2022/07/31 01:00:24;;;;;;;5.97;2.13;;;;;;;40.11;19.48;100255.59;4895306;29;20045;-75
2022/07/31 01:02:53;;;;;;;2.22;1.80;;;;;;;40.08;19.82;100258.59;4898410;29;20051;-76
2022/07/31 01:05:22;;;;;;;3.35;2.30;;;;;;;40.06;21.63;100257.06;4893423;29;20131;-75
2022/07/31 01:07:52;;;;;;;2.10;1.90;;;;;;;40.00;21.48;100255.84;4891016;29;20052;-75
2022/07/31 01:10:30;;;;;;;2.05;1.80;;;;;;;39.98;22.41;100260.59;4897517;29;20490;-75
2022/07/31 01:13:07;;;;;;;3.90;1.90;;;;;;;39.94;21.60;100256.47;4891491;29;20052;-75
2022/07/31 01:15:38;;;;;;;2.22;1.95;;;;;;;39.92;22.45;100255.78;4886716;29;20070;-75
2022/07/31 01:18:08;;;;;;;2.83;1.70;;;;;;;39.86;22.42;100256.41;4892423;29;20056;-74
2022/07/31 01:20:38;;;;;;;2.15;1.92;;;;;;;39.82;21.86;100255.03;4893477;29;20057;-75
2022/07/31 01:23:24;;;;;;;2.63;1.98;;;;;;;39.75;20.53;100247.50;4893363;29;20112;-75
2022/07/31 01:26:04;;;;;;;2.85;1.67;;;;;;;39.66;19.55;100245.72;4893100;29;20131;-75
2022/07/31 01:28:56;;;;;;;2.20;1.98;;;;;;;39.58;22.05;100243.81;4892580;29;20495;-77
2022/07/31 01:31:28;;;;;;;2.85;1.70;;;;;;;39.49;21.16;100258.25;4882891;29;20084;-76
2022/07/31 01:34:04;;;;;;;3.40;2.53;;;;;;;39.38;20.49;100245.81;4890036;29;20057;-76
2022/07/31 01:36:35;;;;;;;4.28;2.00;;;;;;;39.30;20.60;100248.41;4891673;29;20065;-76
2022/07/31 01:39:04;;;;;;;4.82;1.92;;;;;;;39.26;20.42;100241.59;4886546;29;20048;-76
2022/07/31 01:41:38;;;;;;;2.50;2.03;;;;;;;39.23;20.14;100241.06;4900389;29;20507;-76
2022/07/31 01:44:11;;;;;;;5.97;2.10;;;;;;;39.20;20.84;100241.38;4892798;29;20060;-76
2022/07/31 01:46:41;;;;;;;5.13;2.00;;;;;;;39.16;21.53;100238.94;4892169;29;20108;-76
2022/07/31 01:49:11;;;;;;;2.25;2.05;;;;;;;39.09;19.96;100234.31;4898855;29;20761;-76
2022/07/31 01:51:42;;;;;;;2.30;1.90;;;;;;;39.04;20.92;100231.22;4884960;29;20060;-76
2022/07/31 01:54:12;;;;;;;2.20;2.00;;;;;;;38.96;20.62;100238.22;4881532;29;20068;-76
2022/07/31 01:56:42;;;;;;;3.03;2.07;;;;;;;38.93;23.91;100240.38;4895684;29;20488;-76
2022/07/31 01:59:14;;;;;;;2.33;1.90;;;;;;;38.85;21.49;100233.00;4889848;29;20318;-76
2022/07/31 02:01:44;;;;;;;3.47;1.70;;;;;;;38.78;23.56;100231.88;4893623;29;20507;-76
2022/07/31 02:04:14;;;;;;;2.43;1.90;;;;;;;38.68;22.63;100237.34;4888237;29;20496;-76
2022/07/31 02:06:43;;;;;;;4.03;1.98;;;;;;;38.59;22.73;100240.09;4890681;29;20515;-76
2022/07/31 02:09:13;;;;;;;1.90;1.73;;;;;;;38.50;25.42;100241.84;4886855;29;20101;-76
2022/07/31 02:11:42;;;;;;;4.43;2.10;;;;;;;38.40;24.09;100243.72;4888036;29;20057;-76
2022/07/31 02:14:14;;;;;;;2.03;1.83;;;;;;;38.27;24.01;100238.59;4887533;29;20140;-76
2022/07/31 02:16:43;;;;;;;2.80;2.10;;;;;;;38.12;25.46;100247.19;4889450;29;20052;-76
2022/07/31 02:19:14;;;;;;;3.03;1.95;;;;;;;38.01;25.00;100247.34;4886267;29;20049;-76
2022/07/31 02:21:43;;;;;;;2.78;2.10;;;;;;;37.88;24.15;100239.50;4889762;29;20117;-76
2022/07/31 02:24:12;;;;;;;2.20;2.00;;;;;;;37.79;25.86;100244.94;4891523;29;20095;-76
2022/07/31 02:26:41;;;;;;;2.47;1.90;;;;;;;37.70;25.52;100247.47;4894778;29;20156;-76
2022/07/31 02:29:13;;;;;;;2.55;2.00;;;;;;;37.61;25.03;100248.34;4888602;29;20055;-76
2022/07/31 02:31:45;;;;;;;4.25;2.10;;;;;;;37.50;26.00;100245.72;4878228;29;20499;-76
2022/07/31 02:34:15;;;;;;;2.17;1.98;;;;;;;37.37;26.45;100245.19;4894407;29;20068;-77
2022/07/31 02:36:54;;;;;;;2.10;1.70;;;;;;;37.19;23.88;100251.25;4887366;29;20056;-76
2022/07/31 02:39:31;;;;;;;2.33;1.98;;;;;;;37.05;26.34;100257.03;4896814;29;20413;-76
2022/07/31 02:42:01;;;;;;;2.75;2.03;;;;;;;36.89;25.00;100266.47;4885072;29;20129;-76
2022/07/31 02:44:34;;;;;;;2.30;2.00;;;;;;;36.84;25.35;100260.66;4886295;29;20185;-76
2022/07/31 02:47:04;;;;;;;5.15;2.25;;;;;;;36.72;24.61;100267.13;4888669;29;21189;-76
2022/07/31 02:49:33;;;;;;;2.28;2.00;;;;;;;36.62;27.04;100266.22;4891319;29;20053;-76
2022/07/31 02:52:03;;;;;;;2.88;2.00;;;;;;;36.49;25.82;100271.78;4895123;29;20079;-76
2022/07/31 02:54:32;;;;;;;2.60;1.90;;;;;;;36.41;24.85;100272.47;4889166;29;20816;-76
2022/07/31 02:57:02;;;;;;;5.13;2.05;;;;;;;36.39;29.47;100271.75;4891232;29;20057;-76
2022/07/31 02:59:36;;;;;;;3.40;2.10;;;;;;;36.32;27.09;100292.13;4898539;29;20053;-76
2022/07/31 03:02:06;;;;;;;2.72;2.17;;;;;;;36.23;26.39;100292.91;4892802;29;20060;-77
2022/07/31 03:04:37;;;;;;;2.60;2.40;;;;;;;36.06;27.81;100289.81;4891693;29;20047;-76
2022/07/31 03:07:09;;;;;;;2.10;1.88;;;;;;;35.88;29.32;100299.44;4892646;29;20056;-76
2022/07/31 03:09:36;;;;;;;;;;;;;;;35.75;28.26;100305.00;4893268;29;20755;-76
2022/07/31 03:12:06;;;;;;;2.17;1.98;;;;;;;35.65;30.08;100314.81;4889057;29;19939;-75
2022/07/31 03:14:37;;;;;;;3.65;2.22;;;;;;;35.35;27.07;100305.56;4886391;29;20682;-75
2022/07/31 03:17:07;;;;;;;2.20;2.00;;;;;;;35.06;29.89;100307.06;4892375;29;20399;-75
2022/07/31 03:19:36;;;;;;;4.68;2.00;;;;;;;34.91;31.20;100315.38;4890661;29;20048;-75
2022/07/31 03:22:05;;;;;;;2.65;1.90;;;;;;;34.83;29.08;100313.28;4897425;29;20410;-76
2022/07/31 03:24:33;;;;;;;2.22;1.90;;;;;;;34.81;27.02;100309.00;4891103;29;20060;-77
2022/07/31 03:27:02;;;;;;;6.70;2.30;;;;;;;34.80;25.48;100313.53;4893685;29;20045;-77
2022/07/31 03:29:40;;;;;;;4.32;1.80;;;;;;;34.79;25.19;100316.34;4891950;29;20140;-76
2022/07/31 03:32:09;;;;;;;3.50;1.98;;;;;;;34.78;28.70;100322.69;4891149;28;20099;-76
2022/07/31 03:34:37;;;;;;;3.22;1.88;;;;;;;34.68;25.61;100321.69;4889893;29;20503;-76
2022/07/31 03:37:06;;;;;;;2.25;2.00;;;;;;;34.59;26.63;100317.88;4892380;29;20620;-75
2022/07/31 03:39:34;;;;;;;5.28;2.17;;;;;;;34.52;25.87;100324.69;4890476;29;20044;-75
2022/07/31 03:42:04;;;;;;;2.75;2.10;;;;;;;34.47;25.54;100310.78;4888808;29;20048;-76
2022/07/31 03:44:33;;;;;;;2.50;1.80;;;;;;;34.42;24.93;100325.41;4889888;29;20491;-74
2022/07/31 03:47:04;;;;;;;3.60;1.85;;;;;;;34.40;25.38;100322.00;4888578;29;20036;-75
2022/07/31 03:49:34;;;;;;;1.80;1.60;;;;;;;34.34;25.81;100330.53;4891145;29;20083;-76
2022/07/31 03:52:11;;;;;;;2.58;2.15;;;;;;;34.27;26.75;100333.78;4888851;29;20048;-77
2022/07/31 03:54:39;;;;;;;3.13;2.15;;;;;;;34.17;26.19;100334.50;4890918;29;20447;-77
2022/07/31 03:57:10;;;;;;;3.25;1.80;;;;;;;34.11;26.38;100339.47;4883962;29;20105;-77
2022/07/31 03:59:39;;;;;;;4.68;2.00;;;;;;;34.01;27.89;100341.97;4894034;29;20059;-75
2022/07/31 04:02:09;;;;;;;3.88;1.85;;;;;;;33.91;27.18;100341.81;4888271;29;20670;-74
2022/07/31 04:04:38;;;;;;;3.10;2.80;;;;;;;33.82;27.60;100337.16;4894308;29;20052;-74
2022/07/31 04:07:07;;;;;;;6.00;2.67;;;;;;;33.72;27.39;100346.84;4891135;29;20049;-75
2022/07/31 04:09:37;;;;;;;3.97;2.20;;;;;;;33.61;27.92;100344.97;4885974;29;20049;-75
2022/07/31 04:12:06;;;;;;;4.68;2.17;;;;;;;33.51;27.62;100350.13;4888189;29;20131;-75
2022/07/31 04:14:35;;;;;;;3.40;2.40;;;;;;;33.42;28.54;100360.66;4892120;29;20112;-77
2022/07/31 04:17:03;;;;;;;4.57;2.03;;;;;;;33.29;28.52;100358.00;4889605;29;20040;-76
2022/07/31 04:19:33;;;;;;;4.25;1.92;;;;;;;33.15;27.09;100356.31;4894500;29;20104;-76
2022/07/31 04:22:03;;;;;;;2.00;1.58;;;;;;;33.01;27.50;100359.94;4894076;29;20040;-76
2022/07/31 04:24:32;;;;;;;5.38;2.30;;;;;;;32.89;30.35;100368.84;4891200;29;20053;-76
2022/07/31 04:27:00;;;;;;;3.05;1.77;;;;;;;32.78;28.93;100371.41;4889733;29;20490;-76
2022/07/31 04:29:29;;;;;;;2.13;1.63;;;;;;;32.67;28.56;100366.81;4892613;29;20053;-76
2022/07/31 04:31:57;;;;;;;3.33;1.40;;;;;;;32.57;25.75;100379.13;4890773;29;20105;-74
2022/07/31 04:34:34;;;;;;;4.93;2.22;;;;;;;32.53;28.45;100375.81;4888750;29;20064;-77
2022/07/31 04:37:03;;;;;;;2.85;1.63;;;;;;;32.47;26.54;100376.19;4898246;29;20050;-76
2022/07/31 04:39:32;;;;;;;3.70;1.52;;;;;;;32.41;25.52;100371.22;4895051;29;20071;-77
2022/07/31 04:42:00;;;;;;;2.97;1.58;;;;;;;32.34;25.49;100371.66;4890047;29;20107;-77
2022/07/31 04:44:29;;;;;;;3.05;1.52;;;;;;;32.31;27.76;100366.50;4892755;29;20494;-77
2022/07/31 04:47:00;;;;;;;1.70;1.27;;;;;;;32.26;26.38;100383.84;4889038;29;20677;-77
2022/07/31 04:49:29;;;;;;;2.25;1.70;;;;;;;32.22;27.19;100385.88;4893514;29;20049;-75
2022/07/31 04:51:59;;;;;;;1.70;1.60;;;;;;;32.17;26.52;100388.00;4893191;29;20056;-76
2022/07/31 04:54:29;;;;;;;3.10;1.77;;;;;;;32.13;26.59;100390.00;4889581;29;20049;-77
2022/07/31 04:56:58;;;;;;;3.67;1.75;;;;;;;32.09;28.37;100393.88;4889462;29;20523;-77
2022/07/31 04:59:26;;;;;;;3.35;2.22;;;;;;;32.02;29.27;100389.00;4893893;29;20044;-77
2022/07/31 05:01:55;;;;;;;2.50;2.10;;;;;;;31.93;29.72;100394.00;4897369;29;20044;-76
2022/07/31 05:04:25;;;;;;;2.50;2.20;;;;;;;31.85;30.22;100404.31;4889242;29;20052;-77
2022/07/31 05:06:53;;;;;;;2.80;2.00;;;;;;;31.76;30.47;100399.56;4888841;29;20080;-76
2022/07/31 05:09:24;;;;;;;1.95;1.83;;;;;;;31.68;31.01;100393.84;4894328;29;20040;-77
2022/07/31 05:11:53;;;;;;;4.20;1.97;;;;;;;31.60;30.39;100397.03;4905533;29;20052;-76
2022/07/31 05:14:22;;;;;;;3.38;1.77;;;;;;;31.51;31.44;100405.63;4894581;29;20104;-76
2022/07/31 05:16:51;;;;;;;2.80;1.60;;;;;;;31.44;32.18;100409.66;4893310;29;20053;-76
2022/07/31 05:19:19;;;;;;;2.38;2.17;;;;;;;31.35;34.25;100411.06;4894056;29;20554;-76
2022/07/31 05:21:48;;;;;;;2.90;1.85;;;;;;;31.26;30.72;100415.16;4894805;29;20052;-76
2022/07/31 05:24:17;;;;;;;2.58;1.90;;;;;;;31.19;30.86;100416.50;4884054;29;20055;-76
2022/07/31 05:26:47;;;;;;;4.75;1.80;;;;;;;31.13;30.16;100426.72;4894962;29;20056;-75
2022/07/31 05:29:15;;;;;;;4.55;1.80;;;;;;;31.04;29.57;100434.34;4894799;29;20514;-77
2022/07/31 05:31:44;;;;;;;2.92;1.70;;;;;;;31.00;30.38;100434.63;4894205;29;20075;-77
2022/07/31 05:34:19;;;;;;;1.95;1.73;;;;;;;30.92;31.48;100436.91;4892725;29;20052;-76
2022/07/31 05:36:48;;;;;;;1.98;1.48;;;;;;;30.83;27.53;100446.28;4889378;29;20076;-77
2022/07/31 05:39:18;;;;;;;2.58;1.45;;;;;;;30.76;31.26;100443.13;4895367;29;20510;-76
2022/07/31 05:41:50;;;;;;;2.70;1.40;;;;;;;30.67;28.46;100444.56;4902924;29;20074;-74
2022/07/31 05:44:18;;;;;;;3.05;1.40;;;;;;;30.60;29.09;100440.50;4885809;29;20058;-77
2022/07/31 05:46:47;;;;;;;2.40;1.48;;;;;;;30.53;31.25;100447.16;4897591;29;20436;-78
2022/07/31 05:49:15;;;;;;;2.85;1.40;;;;;;;30.43;31.59;100443.34;4895278;29;20495;-77
2022/07/31 05:51:45;;;;;;;1.95;1.40;;;;;;;30.33;30.38;100444.78;4895629;29;20060;-77
2022/07/31 05:54:13;;;;;;;2.40;1.50;;;;;;;30.23;28.95;100447.97;4895820;29;20052;-77
2022/07/31 05:56:42;;;;;;;2.25;1.40;;;;;;;30.14;29.45;100443.16;4881723;29;20053;-77
2022/07/31 05:59:12;;;;;;;3.55;1.65;;;;;;;30.03;34.24;100446.47;4893909;29;20066;-77
2022/07/31 06:01:41;;;;;;;9.85;1.67;;;;;;;29.91;31.76;100441.78;4895631;29;20051;-78
2022/07/31 06:04:09;;;;;;;3.78;1.50;;;;;;;29.81;32.84;100440.59;4896455;29;20494;-76
2022/07/31 06:06:38;;;;;;;2.15;1.63;;;;;;;29.69;31.94;100449.25;4901589;29;20491;-76
2022/07/31 06:09:06;;;;;;;6.22;1.90;;;;;;;29.56;32.82;100452.59;4886848;29;20507;-76
2022/07/31 06:11:35;;;;;;;5.20;1.92;;;;;;;29.40;30.98;100444.56;4894458;29;20495;-77
2022/07/31 06:14:03;;;;;;;3.95;1.80;;;;;;;29.23;33.56;100449.94;4887197;29;20495;-78
2022/07/31 06:16:33;;;;;;;2.47;1.50;;;;;;;29.13;35.13;100454.03;4891077;29;20578;-78
2022/07/31 06:19:02;;;;;;;2.60;1.60;;;;;;;29.00;36.42;100446.66;4893725;29;20510;-78
2022/07/31 06:21:30;;;;;;;2.22;1.67;;;;;;;28.85;35.20;100447.44;4888506;29;20048;-78
2022/07/31 06:23:59;;;;;;;6.53;1.45;;;;;;;28.79;34.22;100450.41;4904205;29;20049;-78
2022/07/31 06:26:27;;;;;;;4.32;1.88;;;;;;;28.74;34.83;100449.78;4896561;29;20045;-77
2022/07/31 06:28:56;;;;;;;2.70;1.52;;;;;;;28.67;35.46;100448.38;4883085;29;20575;-78
2022/07/31 06:31:24;;;;;;;2.22;1.55;;;;;;;28.59;33.90;100460.28;4896489;29;20053;-77
2022/07/31 06:33:54;;;;;;;3.08;1.65;;;;;;;28.47;33.76;100444.91;4884544;29;20554;-78
2022/07/31 06:36:23;;;;;;;1.73;1.52;;;;;;;28.32;34.07;100450.97;4892317;29;20056;-77
2022/07/31 06:38:51;;;;;;;3.17;1.85;;;;;;;28.23;32.82;100462.06;4912128;29;20048;-78
2022/07/31 06:44:01;;;;;;;6.65;1.75;;;;;;;28.00;36.81;100461.38;4896931;29;20089;-77
2022/07/31 06:46:30;;;;;;;5.68;1.67;;;;;;;27.84;37.48;100465.72;4895516;29;20424;-77
2022/07/31 06:49:00;;;;;;;2.47;1.90;;;;;;;27.75;34.28;100467.81;4895804;29;20049;-78
2022/07/31 06:51:29;;;;;;;4.13;1.80;;;;;;;27.74;39.23;100467.88;4885214;29;20093;-78
2022/07/31 06:53:57;;;;;;;5.78;1.92;;;;;;;27.60;37.55;100465.84;4897977;29;20108;-78
2022/07/31 06:56:26;;;;;;;2.28;1.50;;;;;;;27.52;37.50;100473.34;4897035;29;21000;-78
2022/07/31 06:58:54;;;;;;;4.47;1.48;;;;;;;27.49;37.77;100481.47;4883249;29;20525;-78
2022/07/31 07:01:23;;;;;;;2.28;1.50;;;;;;;27.44;37.38;100473.69;4880588;29;20076;-78
2022/07/31 07:03:52;;;;;;;3.25;1.42;;;;;;;27.41;37.86;100486.25;4890961;29;20049;-78
2022/07/31 07:06:22;;;;;;;3.20;1.60;;;;;;;27.36;37.54;100492.63;4896729;29;20056;-76
2022/07/31 07:08:50;;;;;;;2.50;1.52;;;;;;;27.30;37.72;100490.22;4895343;29;20060;-78
2022/07/31 07:11:20;;;;;;;2.67;1.88;;;;;;;27.14;38.10;100482.06;4886776;29;20491;-76
2022/07/31 07:13:49;;;;;;;4.45;2.88;;;;;;;27.12;38.64;100488.34;4892339;29;20060;-77
2022/07/31 07:16:18;;;;;;;5.35;1.88;;;;;;;27.04;38.51;100496.66;4904689;29;20079;-77
2022/07/31 07:18:46;;;;;;;4.60;2.20;;;;;;;26.96;39.17;100493.44;4885244;29;20049;-77
2022/07/31 07:21:15;;;;;;;4.68;1.80;;;;;;;26.88;39.58;100496.44;4900076;29;20048;-77
2022/07/31 07:23:45;;;;;;;4.80;2.33;;;;;;;26.79;40.30;100488.88;4901934;29;20049;-77
2022/07/31 07:26:13;;;;;;;3.70;2.03;;;;;;;26.72;40.84;100495.38;4894910;29;20048;-77
2022/07/31 07:28:42;;;;;;;3.50;2.05;;;;;;;26.66;41.10;100496.50;4903401;29;20048;-77
2022/07/31 07:31:11;;;;;;;3.85;2.30;;;;;;;26.58;41.40;100487.97;4896429;29;20044;-77
2022/07/31 07:33:39;;;;;;;3.75;2.15;;;;;;;26.51;41.78;100489.97;4902510;29;20501;-77
2022/07/31 07:36:08;;;;;;;3.22;1.90;;;;;;;26.46;42.59;100489.31;4884490;29;20108;-78
2022/07/31 07:38:37;;;;;;;2.75;2.10;;;;;;;26.42;43.82;100493.00;4894036;29;20052;-78
2022/07/31 07:41:07;;;;;;;3.40;2.00;;;;;;;26.38;43.68;100491.41;4894289;29;20048;-76
2022/07/31 07:43:35;;;;;;;3.10;1.90;;;;;;;26.35;44.61;100502.16;4884277;29;20499;-77
2022/07/31 07:46:04;;;;;;;8.10;1.90;;;;;;;26.29;43.94;100497.06;4896197;29;20495;-76
2022/07/31 07:48:32;;;;;;;6.72;2.00;;;;;;;26.11;44.45;100502.19;4903285;29;20054;-77
2022/07/31 07:51:01;;;;;;;2.95;1.88;;;;;;;25.99;44.55;100494.69;4898952;29;20112;-76
2022/07/31 07:53:29;;;;;;;2.92;1.67;;;;;;;25.92;44.30;100498.53;4901464;29;20048;-76
2022/07/31 07:56:00;;;;;;;4.72;1.98;;;;;;;25.85;42.94;100497.00;4902506;29;20060;-76
2022/07/31 07:58:30;;;;;;;2.45;1.42;;;;;;;25.77;41.79;100488.47;4885238;29;20132;-75
2022/07/31 08:00:59;;;;;;;3.40;1.63;;;;;;;25.68;41.21;100485.25;4903166;29;20051;-77
2022/07/31 08:03:27;;;;;;;2.72;1.65;;;;;;;25.63;42.09;100494.28;4890663;29;20100;-77
2022/07/31 08:05:56;;;;;;;3.75;1.90;;;;;;;25.54;42.98;100491.97;4889203;29;20056;-77
2022/07/31 08:08:24;;;;;;;3.65;1.60;;;;;;;25.43;41.59;100487.94;4894793;29;20048;-76
2022/07/31 08:10:53;;;;;;;3.13;1.98;;;;;;;25.38;41.26;100491.66;4893992;29;20850;-77
2022/07/31 08:13:21;;;;;;;2.13;1.85;;;;;;;25.32;41.54;100486.59;4888449;29;20052;-76
2022/07/31 08:15:52;;;;;;;2.67;1.60;;;;;;;25.26;42.05;100492.97;4892870;29;20495;-76
2022/07/31 08:18:21;;;;;;;3.83;1.83;;;;;;;25.18;40.81;100490.59;4893678;29;20052;-77
2022/07/31 08:20:49;;;;;;;2.08;1.63;;;;;;;25.09;41.27;100491.75;4906924;29;20075;-78
2022/07/31 08:23:18;;;;;;;2.50;1.50;;;;;;;25.02;43.38;100497.31;4901592;29;20055;-77
2022/07/31 08:25:46;;;;;;;5.45;1.42;;;;;;;24.80;44.78;100494.53;4903847;29;20257;-77
2022/07/31 08:28:15;;;;;;;6.13;1.70;;;;;;;24.57;42.87;100496.16;4894216;29;20056;-77
2022/07/31 08:30:43;;;;;;;2.67;1.48;;;;;;;24.38;42.99;100487.91;4894363;29;20044;-78
2022/07/31 08:33:13;;;;;;;2.75;1.40;;;;;;;24.31;43.03;100491.69;4881671;29;20079;-76
2022/07/31 08:35:42;;;;;;;3.45;1.40;;;;;;;24.28;44.21;100497.06;4890531;29;20503;-76
2022/07/31 08:38:11;;;;;;;2.05;1.60;;;;;;;24.26;44.74;100483.03;4895028;29;20116;-78
2022/07/31 08:40:39;;;;;;;3.50;1.45;;;;;;;24.25;43.61;100494.50;4894227;29;20105;-77
2022/07/31 08:43:08;;;;;;;3.05;1.42;;;;;;;24.21;42.44;100490.22;4894036;29;20056;-77
2022/07/31 08:45:38;;;;;;;3.45;1.45;;;;;;;24.20;44.10;100492.00;4893839;29;20785;-76
2022/07/31 08:48:08;;;;;;;4.22;1.75;;;;;;;24.16;43.11;100478.94;4894571;29;20052;-76
2022/07/31 08:50:40;;;;;;;5.45;1.75;;;;;;;24.08;43.00;100487.09;4890817;29;20521;-76
2022/07/31 08:53:12;;;;;;;4.22;1.60;;;;;;;23.99;42.41;100485.59;4898398;29;20679;-76
2022/07/31 08:55:41;;;;;;;1.73;1.30;;;;;;;23.93;47.08;100498.13;4898082;29;20053;-75
2022/07/31 08:58:09;;;;;;;1.92;1.50;;;;;;;23.70;45.42;100504.91;4884562;29;20444;-76
2022/07/31 09:00:38;;;;;;;3.75;1.90;;;;;;;23.56;44.08;100500.03;4890015;29;20294;-75
2022/07/31 09:03:07;;;;;;;3.47;1.63;;;;;;;23.53;43.78;100504.56;4893279;29;20044;-77
2022/07/31 09:05:39;;;;;;;3.95;1.80;;;;;;;23.52;43.50;100511.59;4890130;29;20044;-76
2022/07/31 09:08:07;;;;;;;3.88;1.90;;;;;;;23.51;43.95;100503.72;4901031;29;20052;-76
2022/07/31 09:10:36;;;;;;;2.35;1.80;;;;;;;23.51;44.54;100509.88;4890077;29;20112;-76
2022/07/31 09:13:14;;;;;;;2.60;2.00;;;;;;;23.50;45.22;100502.88;4891041;29;20115;-76
2022/07/31 09:15:43;;;;;;;2.17;1.98;;;;;;;23.50;45.49;100508.16;4897836;29;20056;-76
2022/07/31 09:18:20;;;;;;;3.55;1.90;;;;;;;23.45;46.05;100504.75;4893906;29;20558;-77
2022/07/31 09:21:00;;;;;;;2.38;1.88;;;;;;;23.40;46.03;100506.66;4893806;29;20507;-75
2022/07/31 09:23:29;;;;;;;3.83;1.80;;;;;;;23.35;46.75;100508.56;4897330;29;20052;-76
2022/07/31 09:25:59;;;;;;;4.13;1.70;;;;;;;23.30;47.01;100511.31;4888809;29;20071;-76
2022/07/31 09:28:35;;;;;;;3.17;2.00;;;;;;;23.27;47.75;100507.88;4890415;29;20415;-76
2022/07/31 09:31:04;;;;;;;5.68;2.33;;;;;;;23.25;47.76;100507.94;4894269;29;20094;-76
2022/07/31 09:33:35;;;;;;;3.88;2.28;;;;;;;23.19;48.51;100514.25;4892205;29;20053;-76
2022/07/31 09:36:06;;;;;;;3.17;2.03;;;;;;;23.13;49.15;100517.03;4885123;29;20752;-76
2022/07/31 09:38:36;;;;;;;2.88;1.90;;;;;;;23.04;49.31;100524.34;4889270;29;20101;-76
2022/07/31 09:41:15;;;;;;;4.28;2.17;;;;;;;23.00;49.58;100523.56;4888720;29;20067;-76
2022/07/31 09:43:43;;;;;;;3.25;1.90;;;;;;;22.97;49.52;100518.31;4885380;29;20104;-76
2022/07/31 09:46:12;;;;;;;5.15;2.00;;;;;;;22.90;50.04;100511.47;4886652;29;20105;-76
2022/07/31 09:48:51;;;;;;;5.38;2.10;;;;;;;22.86;50.92;100517.72;4891902;29;20044;-77
2022/07/31 09:51:22;;;;;;;2.85;2.10;;;;;;;22.87;52.08;100511.56;4887699;29;20515;-76
2022/07/31 09:53:52;;;;;;;2.45;1.98;;;;;;;22.83;53.01;100515.16;4889776;29;20053;-76
2022/07/31 09:56:32;;;;;;;3.17;1.90;;;;;;;22.78;54.59;100512.63;4893366;29;20052;-76
2022/07/31 09:59:02;;;;;;;3.90;1.98;;;;;;;22.76;53.08;100510.03;4889515;29;20052;-76
2022/07/31 10:01:31;;;;;;;4.80;1.90;;;;;;;22.74;51.68;100517.09;4884771;29;20045;-76
2022/07/31 10:04:02;;;;;;;2.88;1.77;;;;;;;22.69;51.79;100508.44;4883378;29;20060;-76
2022/07/31 10:06:35;;;;;;;4.22;1.90;;;;;;;22.66;51.73;100512.94;4886684;29;20056;-76
2022/07/31 10:09:05;;;;;;;3.85;2.00;;;;;;;22.63;51.28;100524.44;4892044;29;20052;-78
2022/07/31 10:11:34;;;;;;;4.97;1.85;;;;;;;22.60;50.95;100529.78;4892034;29;20053;-77
2022/07/31 10:14:05;;;;;;;2.08;1.75;;;;;;;22.57;51.85;100529.84;4895847;29;20056;-77
2022/07/31 10:16:36;;;;;;;4.15;2.13;;;;;;;22.55;52.18;100529.03;4896001;29;20049;-77
2022/07/31 10:19:10;;;;;;;5.50;2.77;;;;;;;22.54;51.78;100529.91;4893701;29;20562;-77
2022/07/31 10:21:42;;;;;;;3.30;2.00;;;;;;;22.54;52.56;100536.06;4890428;29;20136;-77
2022/07/31 10:24:10;;;;;;;;;;;;;;;22.51;51.96;100525.56;4902308;29;20059;-77
2022/07/31 10:26:39;;;;;;;2.58;2.00;;;;;;;22.48;52.63;100535.34;4897046;29;20376;-77
2022/07/31 10:29:08;;;;;;;4.10;1.98;;;;;;;22.45;53.65;100538.03;4904155;29;20048;-76
2022/07/31 10:31:37;;;;;;;2.55;1.75;;;;;;;22.40;52.30;100537.28;4895372;29;20127;-76
2022/07/31 10:34:05;;;;;;;3.72;1.88;;;;;;;22.34;52.13;100543.56;4894913;28;20609;-76
2022/07/31 10:36:38;;;;;;;2.65;1.98;;;;;;;22.28;51.84;100541.91;4895467;29;20518;-76
2022/07/31 10:39:15;;;;;;;4.90;2.22;;;;;;;22.24;51.81;100544.66;4883931;29;20214;-76
2022/07/31 10:41:51;;;;;;;4.53;2.05;;;;;;;22.14;52.35;100547.47;4890606;29;20124;-77
2022/07/31 10:44:28;;;;;;;2.33;1.90;;;;;;;22.06;53.19;100548.53;4897810;29;20558;-77
2022/07/31 10:46:56;;;;;;;3.00;1.90;;;;;;;22.01;54.53;100556.53;4891047;29;20053;-76
2022/07/31 10:49:40;;;;;;;2.78;2.08;;;;;;;21.93;55.68;100559.31;4899883;29;20098;-77
2022/07/31 10:52:09;;;;;;;3.50;1.73;;;;;;;21.90;56.25;100551.50;4882934;29;20084;-77
2022/07/31 10:54:43;;;;;;;3.78;2.05;;;;;;;21.85;55.79;100553.38;4896498;29;20052;-77
2022/07/31 10:57:22;;;;;;;5.07;1.90;;;;;;;21.79;55.19;100556.13;4896360;29;20044;-77
2022/07/31 10:59:51;;;;;;;3.22;1.63;;;;;;;21.70;55.08;100558.94;4896534;29;20051;-77
2022/07/31 11:02:30;;;;;;;3.05;1.75;;;;;;;21.59;55.01;100553.00;4889564;29;20049;-77
2022/07/31 11:05:13;;;;;;;3.35;1.95;;;;;;;21.50;54.78;100548.78;4889435;29;20519;-76
2022/07/31 11:07:43;;;;;;;4.60;1.90;;;;;;;21.48;54.87;100558.47;4893345;29;20745;-76
2022/07/31 11:10:17;;;;;;;3.53;1.85;;;;;;;21.47;55.28;100554.97;4887364;29;20543;-76
2022/07/31 11:12:46;;;;;;;3.55;2.28;;;;;;;21.44;55.46;100555.03;4885788;29;20048;-76
2022/07/31 11:15:24;;;;;;;3.30;1.92;;;;;;;21.43;55.80;100558.53;4899536;29;20564;-76
2022/07/31 11:17:54;;;;;;;4.03;1.90;;;;;;;21.41;55.72;100557.69;4884492;29;20495;-76
2022/07/31 11:20:24;;;;;;;2.75;1.73;;;;;;;21.40;55.84;100563.88;4881127;29;20488;-77
2022/07/31 11:22:58;;;;;;;2.97;2.30;;;;;;;21.38;55.54;100563.00;4903435;29;20131;-76
2022/07/31 11:25:33;;;;;;;2.85;2.30;;;;;;;21.34;54.83;100563.94;4889400;29;20132;-77
2022/07/31 11:28:13;;;;;;;4.05;2.20;;;;;;;21.32;56.02;100563.97;4892244;29;20056;-76
2022/07/31 11:30:55;;;;;;;6.78;2.30;;;;;;;21.30;55.98;100568.41;4881495;29;20116;-77
2022/07/31 11:33:34;;;;;;;4.50;2.28;;;;;;;21.26;54.66;100561.47;4895940;28;20077;-76
2022/07/31 11:36:10;;;;;;;4.57;2.03;;;;;;;21.23;55.07;100561.50;4892500;29;20056;-76
2022/07/31 11:38:40;;;;;;;10.30;2.50;;;;;;;21.19;58.88;100556.31;4882893;29;20052;-76
2022/07/31 11:41:10;;;;;;;4.10;1.75;;;;;;;21.08;58.87;100557.38;4882724;29;20053;-76
2022/07/31 11:43:43;;;;;;;3.63;2.00;;;;;;;21.04;58.64;100560.09;4883598;29;20053;-76